N12161 KBOI-KWYS
Flight info
| Callsign | N12161 |
|---|---|
| Flight time | 0h 43m |
| Altitude | 37000 |
| Route | FETHR DBS |
| Aircraft | C750/M-SBDE3FGHRWXY/S |
Departure
| Time | 2026-05-08 04:34 |
|---|---|
| Airport | Boise Air Terminal/Gowen Field (KBOI) |
Arrival
| Time | 2026-05-08 05:17 |
|---|---|
| Airport | Yellowstone Airport (KWYS) |
| Time | Latitude | Longitude | Altitude | Speed | Heading |
|---|---|---|---|---|---|
| 2026-05-08 04:22 | 43.56955 | -116.22742 | 2842 ft | 0 kts | 357° |
| 2026-05-08 04:30 | 43.56970 | -116.22769 | 2840 ft | 9 kts | 274° |
| 2026-05-08 04:31 | 43.56921 | -116.22830 | 2840 ft | 11 kts | 199° |
| 2026-05-08 04:31 | 43.56849 | -116.22842 | 2842 ft | 9 kts | 105° |
| 2026-05-08 04:31 | 43.56818 | -116.22735 | 2845 ft | 16 kts | 117° |
| 2026-05-08 04:31 | 43.56762 | -116.22575 | 2846 ft | 18 kts | 114° |
| 2026-05-08 04:32 | 43.56707 | -116.22422 | 2849 ft | 12 kts | 127° |
| 2026-05-08 04:32 | 43.56628 | -116.22406 | 2849 ft | 15 kts | 183° |
| 2026-05-08 04:32 | 43.56503 | -116.22416 | 2850 ft | 16 kts | 183° |
| 2026-05-08 04:32 | 43.56412 | -116.22438 | 2853 ft | 10 kts | 225° |
| 2026-05-08 04:33 | 43.56405 | -116.22508 | 2853 ft | 0 kts | 287° |
| 2026-05-08 04:33 | 43.56434 | -116.22600 | 2854 ft | 48 kts | 295° |
| 2026-05-08 04:33 | 43.56746 | -116.23508 | 2858 ft | 145 kts | 294° |
| 2026-05-08 04:33 | 43.57214 | -116.24840 | 3387 ft | 163 kts | 296° |
| 2026-05-08 04:34 | 43.57775 | -116.26330 | 3951 ft | 187 kts | 300° |
| 2026-05-08 04:34 | 43.58444 | -116.27969 | 4580 ft | 205 kts | 299° |
| 2026-05-08 04:34 | 43.59126 | -116.29789 | 5101 ft | 224 kts | 297° |
| 2026-05-08 04:34 | 43.59888 | -116.31804 | 5454 ft | 250 kts | 299° |
| 2026-05-08 04:35 | 43.60895 | -116.33886 | 5778 ft | 273 kts | 311° |
| 2026-05-08 04:35 | 43.62136 | -116.35786 | 7130 ft | 261 kts | 313° |
| 2026-05-08 04:35 | 43.63359 | -116.37648 | 8357 ft | 263 kts | 312° |
| 2026-05-08 04:35 | 43.64613 | -116.39490 | 9558 ft | 266 kts | 316° |
| 2026-05-08 04:36 | 43.66305 | -116.40591 | 10400 ft | 282 kts | 346° |
| 2026-05-08 04:36 | 43.68377 | -116.40367 | 10659 ft | 318 kts | 9° |
| 2026-05-08 04:36 | 43.70515 | -116.39125 | 10810 ft | 354 kts | 30° |
| 2026-05-08 04:36 | 43.72253 | -116.36655 | 11643 ft | 363 kts | 51° |
| 2026-05-08 04:37 | 43.73197 | -116.33368 | 12439 ft | 377 kts | 77° |
| 2026-05-08 04:37 | 43.73115 | -116.29721 | 13267 ft | 384 kts | 97° |
| 2026-05-08 04:37 | 43.72584 | -116.26077 | 14058 ft | 389 kts | 101° |
| 2026-05-08 04:37 | 43.71950 | -116.22416 | 14758 ft | 393 kts | 102° |
| 2026-05-08 04:38 | 43.71350 | -116.18709 | 15491 ft | 397 kts | 101° |
| 2026-05-08 04:38 | 43.70798 | -116.14946 | 16231 ft | 402 kts | 100° |
| 2026-05-08 04:38 | 43.70222 | -116.11147 | 17012 ft | 406 kts | 101° |
| 2026-05-08 04:38 | 43.69606 | -116.07317 | 17813 ft | 410 kts | 102° |
| 2026-05-08 04:39 | 43.68986 | -116.03441 | 18539 ft | 415 kts | 101° |
| 2026-05-08 04:39 | 43.68377 | -115.99520 | 19264 ft | 419 kts | 101° |
| 2026-05-08 04:39 | 43.67764 | -115.95569 | 20015 ft | 423 kts | 101° |
| 2026-05-08 04:39 | 43.67132 | -115.91584 | 20770 ft | 427 kts | 102° |
| 2026-05-08 04:40 | 43.66489 | -115.87555 | 21527 ft | 432 kts | 102° |
| 2026-05-08 04:40 | 43.65852 | -115.83538 | 22264 ft | 436 kts | 102° |
| 2026-05-08 04:40 | 43.65193 | -115.79375 | 23022 ft | 441 kts | 102° |
| 2026-05-08 04:40 | 43.64540 | -115.75275 | 23718 ft | 446 kts | 102° |
| 2026-05-08 04:41 | 43.63866 | -115.71071 | 24298 ft | 451 kts | 102° |
| 2026-05-08 04:41 | 43.63185 | -115.66827 | 24875 ft | 456 kts | 102° |
| 2026-05-08 04:41 | 43.62496 | -115.62531 | 25448 ft | 461 kts | 101° |
| 2026-05-08 04:41 | 43.61797 | -115.58184 | 26028 ft | 467 kts | 101° |
| 2026-05-08 04:42 | 43.61087 | -115.53789 | 26574 ft | 472 kts | 101° |
| 2026-05-08 04:42 | 43.60367 | -115.49348 | 27146 ft | 477 kts | 101° |
| 2026-05-08 04:42 | 43.59640 | -115.44864 | 27700 ft | 482 kts | 101° |
| 2026-05-08 04:42 | 43.58903 | -115.40337 | 28248 ft | 487 kts | 101° |
| 2026-05-08 04:43 | 43.58172 | -115.35746 | 28754 ft | 491 kts | 98° |
| 2026-05-08 04:43 | 43.57839 | -115.31053 | 29257 ft | 492 kts | 88° |
| 2026-05-08 04:43 | 43.58026 | -115.26349 | 29801 ft | 492 kts | 78° |
| 2026-05-08 04:43 | 43.58715 | -115.21731 | 30284 ft | 492 kts | 71° |
| 2026-05-08 04:44 | 43.59558 | -115.17146 | 30787 ft | 495 kts | 71° |
| 2026-05-08 04:44 | 43.60384 | -115.12538 | 31471 ft | 493 kts | 71° |
| 2026-05-08 04:44 | 43.61196 | -115.07965 | 32209 ft | 490 kts | 71° |
| 2026-05-08 04:44 | 43.62019 | -115.03408 | 32898 ft | 488 kts | 70° |
| 2026-05-08 04:45 | 43.62842 | -114.98866 | 33626 ft | 486 kts | 70° |
| 2026-05-08 04:45 | 43.63650 | -114.94347 | 34281 ft | 485 kts | 70° |
| 2026-05-08 04:45 | 43.64449 | -114.89838 | 34916 ft | 482 kts | 70° |
| 2026-05-08 04:45 | 43.65248 | -114.85349 | 35597 ft | 480 kts | 70° |
| 2026-05-08 04:46 | 43.66046 | -114.80879 | 36281 ft | 479 kts | 69° |
| 2026-05-08 04:46 | 43.66838 | -114.76417 | 36918 ft | 479 kts | 69° |
| 2026-05-08 04:46 | 43.67639 | -114.71895 | 36971 ft | 491 kts | 69° |
| 2026-05-08 04:46 | 43.68457 | -114.67272 | 36962 ft | 502 kts | 70° |
| 2026-05-08 04:47 | 43.70131 | -114.57718 | 36985 ft | 522 kts | 70° |
| 2026-05-08 04:47 | 43.71852 | -114.47852 | 36999 ft | 534 kts | 70° |
| 2026-05-08 04:48 | 43.73591 | -114.37832 | 36967 ft | 537 kts | 70° |
| 2026-05-08 04:48 | 43.75335 | -114.27739 | 36949 ft | 540 kts | 70° |
| 2026-05-08 04:49 | 43.77064 | -114.17652 | 36931 ft | 538 kts | 70° |
| 2026-05-08 04:49 | 43.78793 | -114.07545 | 36917 ft | 540 kts | 70° |
| 2026-05-08 04:50 | 43.80512 | -113.97429 | 36911 ft | 540 kts | 70° |
| 2026-05-08 04:50 | 43.82213 | -113.87317 | 36905 ft | 539 kts | 70° |
| 2026-05-08 04:51 | 43.83917 | -113.77190 | 36928 ft | 540 kts | 70° |
| 2026-05-08 04:51 | 43.85602 | -113.67072 | 36904 ft | 538 kts | 70° |
| 2026-05-08 04:52 | 43.87278 | -113.56996 | 36894 ft | 539 kts | 70° |
| 2026-05-08 04:52 | 43.88913 | -113.46991 | 36551 ft | 512 kts | 70° |
| 2026-05-08 04:53 | 43.89673 | -113.42297 | 36198 ft | 487 kts | 69° |
| 2026-05-08 04:53 | 43.90416 | -113.37811 | 35792 ft | 470 kts | 68° |
| 2026-05-08 04:53 | 43.91147 | -113.33434 | 35394 ft | 465 kts | 68° |
| 2026-05-08 04:53 | 43.91871 | -113.29035 | 35016 ft | 470 kts | 69° |
| 2026-05-08 04:54 | 43.92588 | -113.24586 | 34658 ft | 476 kts | 69° |
| 2026-05-08 04:54 | 43.93310 | -113.20085 | 34307 ft | 479 kts | 69° |
| 2026-05-08 04:54 | 43.94040 | -113.15571 | 33961 ft | 480 kts | 69° |
| 2026-05-08 04:54 | 43.94773 | -113.11050 | 33576 ft | 481 kts | 69° |
| 2026-05-08 04:55 | 43.95503 | -113.06511 | 33220 ft | 483 kts | 69° |
| 2026-05-08 04:55 | 43.96231 | -113.01956 | 32830 ft | 484 kts | 70° |
| 2026-05-08 04:55 | 43.96962 | -112.97379 | 32431 ft | 486 kts | 70° |
| 2026-05-08 04:55 | 43.97693 | -112.92796 | 32065 ft | 488 kts | 70° |
| 2026-05-08 04:56 | 43.98428 | -112.88179 | 31688 ft | 490 kts | 70° |
| 2026-05-08 04:56 | 43.99162 | -112.83557 | 31316 ft | 491 kts | 70° |
| 2026-05-08 04:56 | 43.99895 | -112.78920 | 30875 ft | 494 kts | 70° |
| 2026-05-08 04:56 | 44.00632 | -112.74244 | 30395 ft | 497 kts | 70° |
| 2026-05-08 04:57 | 44.01350 | -112.69572 | 29952 ft | 492 kts | 71° |
| 2026-05-08 04:57 | 44.02128 | -112.65054 | 29244 ft | 470 kts | 68° |
| 2026-05-08 04:57 | 44.02909 | -112.60688 | 28383 ft | 460 kts | 69° |
| 2026-05-08 04:57 | 44.03531 | -112.56458 | 27186 ft | 433 kts | 72° |
| 2026-05-08 04:58 | 44.04088 | -112.52353 | 26078 ft | 432 kts | 72° |
| 2026-05-08 04:58 | 44.04723 | -112.48278 | 24978 ft | 430 kts | 71° |
| 2026-05-08 04:58 | 44.05385 | -112.44227 | 23927 ft | 429 kts | 71° |
| 2026-05-08 04:58 | 44.06000 | -112.40180 | 22942 ft | 426 kts | 73° |
| 2026-05-08 04:59 | 44.06573 | -112.36195 | 22160 ft | 415 kts | 73° |
| 2026-05-08 04:59 | 44.07158 | -112.32302 | 21392 ft | 408 kts | 72° |
| 2026-05-08 04:59 | 44.07755 | -112.28474 | 20657 ft | 403 kts | 72° |
| 2026-05-08 04:59 | 44.08331 | -112.24683 | 19925 ft | 397 kts | 73° |
| 2026-05-08 05:00 | 44.08972 | -112.21206 | 19155 ft | 351 kts | 63° |
| 2026-05-08 05:00 | 44.10132 | -112.18360 | 18420 ft | 338 kts | 50° |
| 2026-05-08 05:00 | 44.11458 | -112.15676 | 17674 ft | 335 kts | 49° |
| 2026-05-08 05:00 | 44.12782 | -112.12978 | 16901 ft | 332 kts | 51° |
| 2026-05-08 05:01 | 44.14053 | -112.10361 | 16161 ft | 329 kts | 52° |
| 2026-05-08 05:01 | 44.15329 | -112.07734 | 15435 ft | 326 kts | 52° |
| 2026-05-08 05:01 | 44.16616 | -112.05095 | 14733 ft | 323 kts | 53° |
| 2026-05-08 05:01 | 44.17876 | -112.02510 | 14028 ft | 321 kts | 54° |
| 2026-05-08 05:02 | 44.19110 | -111.99969 | 13298 ft | 318 kts | 54° |
| 2026-05-08 05:02 | 44.20340 | -111.97431 | 12527 ft | 314 kts | 54° |
| 2026-05-08 05:02 | 44.21544 | -111.94951 | 11860 ft | 302 kts | 52° |
| 2026-05-08 05:02 | 44.22696 | -111.92576 | 11797 ft | 294 kts | 52° |
| 2026-05-08 05:03 | 44.23837 | -111.90220 | 11796 ft | 294 kts | 52° |
| 2026-05-08 05:03 | 44.25003 | -111.87814 | 11797 ft | 301 kts | 52° |
| 2026-05-08 05:03 | 44.26175 | -111.85390 | 11796 ft | 302 kts | 53° |
| 2026-05-08 05:03 | 44.27350 | -111.82955 | 11798 ft | 303 kts | 53° |
| 2026-05-08 05:04 | 44.28525 | -111.80522 | 11809 ft | 303 kts | 53° |
| 2026-05-08 05:04 | 44.29704 | -111.78079 | 11808 ft | 310 kts | 53° |
| 2026-05-08 05:04 | 44.30965 | -111.75475 | 11816 ft | 337 kts | 53° |
| 2026-05-08 05:04 | 44.32313 | -111.72678 | 11821 ft | 354 kts | 54° |
| 2026-05-08 05:05 | 44.33689 | -111.69802 | 11823 ft | 358 kts | 54° |
| 2026-05-08 05:05 | 44.35080 | -111.66903 | 11819 ft | 361 kts | 54° |
| 2026-05-08 05:05 | 44.36483 | -111.63985 | 11816 ft | 363 kts | 54° |
| 2026-05-08 05:05 | 44.37888 | -111.61059 | 11819 ft | 362 kts | 54° |
| 2026-05-08 05:06 | 44.39290 | -111.58130 | 11827 ft | 363 kts | 54° |
| 2026-05-08 05:06 | 44.40692 | -111.55199 | 11829 ft | 363 kts | 54° |
| 2026-05-08 05:06 | 44.42096 | -111.52265 | 11827 ft | 363 kts | 54° |
| 2026-05-08 05:06 | 44.43498 | -111.49329 | 11831 ft | 363 kts | 54° |
| 2026-05-08 05:07 | 44.44898 | -111.46393 | 11855 ft | 362 kts | 54° |
| 2026-05-08 05:07 | 44.46294 | -111.43465 | 11871 ft | 362 kts | 54° |
| 2026-05-08 05:07 | 44.47690 | -111.40535 | 11889 ft | 362 kts | 54° |
| 2026-05-08 05:07 | 44.48617 | -111.38586 | 11898 ft | 362 kts | 54° |
| 2026-05-08 05:08 | 44.50011 | -111.35655 | 11911 ft | 362 kts | 54° |
| 2026-05-08 05:08 | 44.51406 | -111.32716 | 11930 ft | 362 kts | 54° |
| 2026-05-08 05:08 | 44.52802 | -111.29773 | 11946 ft | 362 kts | 54° |
| 2026-05-08 05:08 | 44.54195 | -111.26834 | 11961 ft | 362 kts | 54° |
| 2026-05-08 05:09 | 44.55583 | -111.23887 | 11980 ft | 361 kts | 55° |
| 2026-05-08 05:09 | 44.56439 | -111.20573 | 11934 ft | 366 kts | 80° |
| 2026-05-08 05:09 | 44.56708 | -111.17022 | 11980 ft | 368 kts | 82° |
| 2026-05-08 05:09 | 44.56426 | -111.13484 | 11950 ft | 360 kts | 107° |
| 2026-05-08 05:10 | 44.55147 | -111.10693 | 11942 ft | 327 kts | 136° |
| 2026-05-08 05:10 | 44.51296 | -111.07796 | 11977 ft | 314 kts | 158° |
| 2026-05-08 05:10 | 44.49287 | -111.06599 | 11962 ft | 313 kts | 158° |
| 2026-05-08 05:11 | 44.47278 | -111.05412 | 11926 ft | 313 kts | 158° |
| 2026-05-08 05:11 | 44.45184 | -111.04737 | 11871 ft | 310 kts | 182° |
| 2026-05-08 05:11 | 44.43129 | -111.05518 | 11475 ft | 308 kts | 211° |
| 2026-05-08 05:11 | 44.41660 | -111.07586 | 10950 ft | 298 kts | 243° |
| 2026-05-08 05:12 | 44.41196 | -111.10292 | 10464 ft | 289 kts | 274° |
| 2026-05-08 05:12 | 44.41823 | -111.12881 | 9994 ft | 280 kts | 308° |
| 2026-05-08 05:12 | 44.43317 | -111.14486 | 10039 ft | 274 kts | 333° |
| 2026-05-08 05:12 | 44.45065 | -111.15600 | 10064 ft | 277 kts | 337° |
| 2026-05-08 05:13 | 44.46850 | -111.16647 | 10066 ft | 279 kts | 338° |
| 2026-05-08 05:13 | 44.48641 | -111.17689 | 10068 ft | 278 kts | 338° |
| 2026-05-08 05:13 | 44.50432 | -111.18730 | 10065 ft | 278 kts | 338° |
| 2026-05-08 05:13 | 44.52221 | -111.19769 | 10069 ft | 279 kts | 338° |
| 2026-05-08 05:14 | 44.54014 | -111.20808 | 10033 ft | 280 kts | 338° |
| 2026-05-08 05:14 | 44.55872 | -111.21553 | 9679 ft | 279 kts | 357° |
| 2026-05-08 05:14 | 44.57726 | -111.20887 | 9274 ft | 273 kts | 29° |
| 2026-05-08 05:14 | 44.58991 | -111.19019 | 8774 ft | 259 kts | 55° |
| 2026-05-08 05:15 | 44.60195 | -111.17639 | 8983 ft | 217 kts | 27° |
| 2026-05-08 05:15 | 44.61521 | -111.16695 | 8627 ft | 200 kts | 24° |
| 2026-05-08 05:15 | 44.62698 | -111.15956 | 8217 ft | 177 kts | 24° |
| 2026-05-08 05:15 | 44.63769 | -111.15195 | 7854 ft | 175 kts | 26° |
| 2026-05-08 05:16 | 44.64855 | -111.14491 | 7456 ft | 160 kts | 22° |
| 2026-05-08 05:16 | 44.65771 | -111.13868 | 7195 ft | 136 kts | 26° |
| 2026-05-08 05:16 | 44.66581 | -111.13309 | 7003 ft | 122 kts | 24° |
| 2026-05-08 05:16 | 44.67355 | -111.12786 | 6785 ft | 122 kts | 25° |
| 2026-05-08 05:17 | 44.68121 | -111.12264 | 6654 ft | 120 kts | 25° |
| 2026-05-08 05:17 | 44.68754 | -111.11827 | 6647 ft | 71 kts | 26° |
| 2026-05-08 05:17 | 44.69049 | -111.11622 | 6647 ft | 41 kts | 26° |
| 2026-05-08 05:17 | 44.69256 | -111.11471 | 6644 ft | 29 kts | 24° |
| 2026-05-08 05:18 | 44.69496 | -111.11311 | 6638 ft | 49 kts | 27° |
| 2026-05-08 05:18 | 44.69800 | -111.11103 | 6636 ft | 37 kts | 26° |
| 2026-05-08 05:18 | 44.69823 | -111.10965 | 6636 ft | 14 kts | 138° |
| 2026-05-08 05:18 | 44.69757 | -111.10961 | 6638 ft | 8 kts | 207° |
| 2026-05-08 05:19 | 44.69710 | -111.10993 | 6637 ft | 9 kts | 206° |
| 2026-05-08 05:19 | 44.69636 | -111.11045 | 6638 ft | 14 kts | 206° |
| 2026-05-08 05:19 | 44.69538 | -111.11113 | 6637 ft | 17 kts | 206° |
| 2026-05-08 05:19 | 44.69421 | -111.11194 | 6643 ft | 20 kts | 206° |
| 2026-05-08 05:20 | 44.69299 | -111.11278 | 6651 ft | 19 kts | 206° |
| 2026-05-08 05:20 | 44.69189 | -111.11354 | 6642 ft | 17 kts | 206° |
| 2026-05-08 05:20 | 44.69090 | -111.11422 | 6644 ft | 15 kts | 206° |
| 2026-05-08 05:20 | 44.68988 | -111.11492 | 6648 ft | 17 kts | 207° |
| 2026-05-08 05:21 | 44.68901 | -111.11549 | 6646 ft | 8 kts | 187° |
| 2026-05-08 05:21 | 44.68858 | -111.11506 | 6646 ft | 8 kts | 118° |
| 2026-05-08 05:21 | 44.68832 | -111.11444 | 6649 ft | 4 kts | 137° |
| 2026-05-08 05:21 | 44.68828 | -111.11447 | 6644 ft | 0 kts | 206° |